Glade Spring, Virginia
Current Conditions -  °F | °C
As of 12:35 PM on Saturday 25 Oct 2014 (Local Time) from KVJI Reporting Station
Clear Clear  
Wind Chill: 60°   Ceiling: Unl
Heat Index: 60°   Visibility: 10mi
Dew Point: 46°   Wind: 7mph
Humidity: 60%   Direction: 260°W
Pressure: 30.09"   Gusts: NA
Location:  36.79°N, 81.77°W
Report Text: KVJI 251635Z AUTO 26006KT 10SM CLR 16/08 A3009 RMK AO2 T01550077
Loading
Personal Weather Stations






























Interactive Weather Map
Tropical Storm Tracking
New forecast layout! Learn more

10-Day Weather Forecast

Advertisements
Track Severe Weather on mobile